Accueil
METAR-TAF:

METAR-TAF

Aéroports :

Aéroport d'El Oued - Guemar

El Oued, Algérie

latitude: 33-30-47N, longitude: 006-46-57E, altitude: 62 m

Observation

Le bulletin a été fait il y a 1 heure et 8 minutes, à 10:00 UTC
Vent 8 kt de ouest/sud-ouest
Température 31°C
Humidité 15%
Pression 1013 hPa
Visibilité 10 km ou plus
pas de nuages en-dessous de 1500 mètres et pas de cumulonimbus.

METAR: DAUO 141000Z 25008KT CAVOK 31/01 Q1013

Heure: 12:08 (11:08 UTC)

Prévision

Le bulletin a été fait il y a 3 heures et 8 minutes, à 08:00 UTC
Prévision valable du 14 à 09 UTC au 14 à 18 UTC
Vent 8 kt de ouest
Visibilité 10 km ou plus
pas de nuages en-dessous de 1500 mètres et pas de cumulonimbus.
Evoluant progressivement
du 14 à 12 UTC au 14 à 15 UTC
Vent 12 kt de nord-ouest

TAF: DAUO 140800Z 1409/1418 26008KT CAVOK BECMG 1412/1415 32012KT

Observations et prévisions météorologiques de plus de 4000 aéroports (messages METAR et TAF).

Les stations disponibles sont représentées par des disques jaunes et rouges sur la carte.

Passer la souris dessus pour voir le nom de la station.

Cliquer dessus pour voir les observations et prévisions météorologiques.

Pour changer de carte: cliquez sur les boutons verts avec une croix noire pour zoomer, sur le bouton vert avec un tiret pour effectuer un zoom arrière, ou sur les flèches vertes pour les cartes adjacentes.


METAR-TAF: